IOLK1: Grand River, Iola

Data processed at Tue May 21 2019 21:50


All information presented herein is the property of the government of the United States of America and may be revised or deleted at any time without prior notice.
Dissemination of this information without the expressed written consent of the Public Affairs Office, Tulsa District U.S. Army Corps of Engineers is strictly prohibited.
These data are gathered electronically and, as presented, have not undergone any form of quality control. These data are not guaranteed to be valid or correct.
Go to home page.
Go to station list.
Go to home page.

Upstream stations:

Downstream station:
Previous Day
Next Day
Current Day
    
SHEF ID:       IOLK1     NEOSHO RIVER NEAR IOLA
STATION TYPE:  
Regulating: Stage =    15.00, Flow =    21485

               PRECIP     STAGE  RIV-FLOW  AIR-TEMP  BAT-LOAD
                   in        ft       cfs         F      volt
              Ccp-Rev   Ccp-Rev   Ccp-Rev   Ccp-Rev   Ccp-Rev
(US/Central)
05/21 00:00      0.18     17.10     25878     49.19     12.49
05/21 01:00      0.12     17.44     26561     48.95     12.49
05/21 02:00      0.16     17.73     27138     49.71     12.41
05/21 03:00      0.20     17.95     27573     50.53     12.41
05/21 04:00      0.03     18.18     28025     50.82     12.41
05/21 05:00      0.15     18.42     28493     52.36     12.41
05/21 06:00      0.07     18.66     28958     53.32     12.41
05/21 07:00      0.14     18.98     29574     54.19     12.41
05/21 08:00      0.67     19.26     30109     56.32     12.41
05/21 09:00      0.30     19.45     30470     55.04     12.49
05/21 10:00      0.09     19.66     30867     55.74     12.41
05/21 11:00      0.11     19.80     31130     52.86     12.49
05/21 12:00      0.04     19.96     31430     55.31     12.57
05/21 13:00      0.02     20.10     31692     57.46     12.49
05/21 14:00      0.01     20.22     31915     59.44     12.57
05/21 15:00      0.00     20.34     32138     63.60     13.05
05/21 16:00      0.00     20.43     32305     65.25     13.05
05/21 17:00      0.00     20.48     32398     68.83     13.05
05/21 18:00      0.00     20.53     32490     70.11     13.05
05/21 19:00      0.00     20.55     32527     70.13     12.81
05/21 20:00      0.00     20.55     32527     68.94     12.73
05/21 21:00      0.00     20.56     32545     66.85     12.65
05/21 22:00      ----      ----      ----      ----      ----
05/21 23:00      ----      ----      ----      ----      ----